CheckWX is a tool to help pilots better visualize weather data.  It is not intended as a substitute for an official pre-flight weather briefing.

05:31:01 UTC

KATW TAF
Appleton International Airport
Appleton, Wisconsin, USA
KATW 190210Z 1902/1924 28020G30KT P6SM -SHSN SCT016 BKN035 WS019/32035KT TEMPO 1902/1906 4SM -SHSN BLSN BKN016 FM190600 28018G29KT P6SM -SHSN OVC024 WS018/31040KT FM191200 31012G19KT P6SM -SHSN BKN025 FM192100 31009G16KT P6SM -SHSN BKN045

Jan-19@
02:00 UTC

Jan-19 @ 02:00 UTC

Jan-19@
06:00 UTC

Jan-19 @ 06:00 UTC

KATW 190210Z 1902/1924 28020G30KT P6SM -SHSN SCT016 BKN035 WS019/32035KT
Wind
  • 280° at 20 KTS
  • {Gusting to 30 KTS
Conditions
Light Snow
Cloud Levels
  • Scattered at 1,600' AGL
  • Broken at 3,500' AGL

Jan-19@
02:00 UTC

Jan-19 @ 02:00 UTC

Jan-19@
06:00 UTC

Jan-19 @ 06:00 UTC

TEMPO 1902/1906 4SM -SHSN BLSN BKN016

Temporary

Temporary Changes expected for less than half the time period

Conditions
Light Snow, Blowing Snow
Cloud Levels
  • Broken at 1,600' AGL

Jan-19@
06:00 UTC

Jan-19 @ 06:00 UTC

Jan-19@
12:00 UTC

Jan-19 @ 12:00 UTC

FM190600 28018G29KT P6SM -SHSN OVC024 WS018/31040KT

From

From Standard forecast or significant change

Wind
  • 280° at 18 KTS
  • {Gusting to 29 KTS
Conditions
Light Snow
Cloud Levels
  • Overcast at 2,400' AGL

Jan-19@
12:00 UTC

Jan-19 @ 12:00 UTC

Jan-19@
21:00 UTC

Jan-19 @ 21:00 UTC

FM191200 31012G19KT P6SM -SHSN BKN025

From

From Standard forecast or significant change

Wind
  • 310° at 12 KTS
  • {Gusting to 19 KTS
Conditions
Light Snow
Cloud Levels
  • Broken at 2,500' AGL

Jan-19@
21:00 UTC

Jan-19 @ 21:00 UTC

Jan-20@
00:00 UTC

Jan-20 @ 00:00 UTC

FM192100 31009G16KT P6SM -SHSN BKN045

From

From Standard forecast or significant change

Wind
  • 310° at 9 KTS
  • {Gusting to 16 KTS
Conditions
Light Snow
Cloud Levels
  • Broken at 4,500' AGL